DAL38 ZSPD-KLAX
Flight info
| Callsign | DAL38 |
|---|---|
| Flight time | N/A |
| Altitude | 35000 |
| Route | LAM93D LAMEN A593 SADLI Y590 BEDAR Y591 FUE Y23 KASTE Y81 TASOT Y57 POROT/N0489F370 Y809 IDLAN Y812 ADNAP OTR5 KALNA DCT 41N160E 42N170E 43N180E 43N170W/N0489F390 43N160W 44N150W 45N140W 43N130W/N0487F410 DCT VESPA DCT ENI DCT BURGL IRNMN2 |
| Aircraft | A359/H-SDE2E3GHIJ3J4J5LM1ORWXY/LB1D1 |
Departure
| Time | N/A |
|---|---|
| Airport | Shanghai Pudong International Airport (ZSPD) |
Arrival
| Time | 2026-05-04 02:27 |
|---|---|
| Airport | Los Angeles International Airport (KLAX) |
| Time | Latitude | Longitude | Altitude | Speed | Heading |
|---|---|---|---|---|---|
| 2026-05-04 02:13 | 34.10425 | -118.74510 | 11169 ft | 296 kts | 141° |
| 2026-05-04 02:13 | 34.09027 | -118.72974 | 10884 ft | 295 kts | 141° |
| 2026-05-04 02:13 | 34.07547 | -118.71356 | 10672 ft | 291 kts | 141° |
| 2026-05-04 02:14 | 34.06092 | -118.69766 | 10439 ft | 285 kts | 142° |
| 2026-05-04 02:14 | 34.04654 | -118.68210 | 10204 ft | 281 kts | 141° |
| 2026-05-04 02:14 | 34.03344 | -118.66482 | 9956 ft | 284 kts | 125° |
| 2026-05-04 02:14 | 34.02718 | -118.64254 | 9801 ft | 280 kts | 101° |
| 2026-05-04 02:15 | 34.02509 | -118.61961 | 9600 ft | 272 kts | 98° |
| 2026-05-04 02:15 | 34.02320 | -118.59723 | 9192 ft | 264 kts | 99° |
| 2026-05-04 02:15 | 34.02127 | -118.57566 | 8826 ft | 253 kts | 99° |
| 2026-05-04 02:15 | 34.01933 | -118.55462 | 8568 ft | 252 kts | 99° |
| 2026-05-04 02:16 | 34.01739 | -118.53368 | 8324 ft | 251 kts | 99° |
| 2026-05-04 02:16 | 34.01544 | -118.51278 | 8068 ft | 249 kts | 98° |
| 2026-05-04 02:16 | 34.01354 | -118.49269 | 7787 ft | 248 kts | 98° |
| 2026-05-04 02:16 | 34.01160 | -118.47205 | 7468 ft | 247 kts | 98° |
| 2026-05-04 02:17 | 34.01123 | -118.45144 | 7182 ft | 246 kts | 84° |
| 2026-05-04 02:17 | 34.01432 | -118.43107 | 6849 ft | 247 kts | 78° |
| 2026-05-04 02:17 | 34.01786 | -118.41141 | 6549 ft | 246 kts | 78° |
| 2026-05-04 02:17 | 34.02142 | -118.39135 | 6298 ft | 243 kts | 78° |
| 2026-05-04 02:18 | 34.02484 | -118.37175 | 6009 ft | 241 kts | 79° |
| 2026-05-04 02:18 | 34.02788 | -118.35443 | 5802 ft | 235 kts | 79° |
| 2026-05-04 02:18 | 34.03038 | -118.33616 | 5628 ft | 228 kts | 85° |
| 2026-05-04 02:18 | 34.03202 | -118.31736 | 5306 ft | 227 kts | 85° |
| 2026-05-04 02:19 | 34.03366 | -118.29846 | 5004 ft | 226 kts | 85° |
| 2026-05-04 02:19 | 34.03547 | -118.28003 | 4705 ft | 223 kts | 84° |
| 2026-05-04 02:19 | 34.03747 | -118.26176 | 4384 ft | 223 kts | 84° |
| 2026-05-04 02:19 | 34.03950 | -118.24366 | 4051 ft | 223 kts | 84° |
| 2026-05-04 02:20 | 34.04151 | -118.22565 | 3766 ft | 224 kts | 84° |
| 2026-05-04 02:20 | 34.04356 | -118.20706 | 3432 ft | 224 kts | 83° |
| 2026-05-04 02:20 | 34.04398 | -118.18865 | 2959 ft | 228 kts | 103° |
| 2026-05-04 02:20 | 34.03710 | -118.17208 | 2631 ft | 218 kts | 137° |
| 2026-05-04 02:21 | 34.02523 | -118.16267 | 2556 ft | 199 kts | 159° |
| 2026-05-04 02:21 | 34.01393 | -118.15669 | 2577 ft | 185 kts | 160° |
| 2026-05-04 02:21 | 34.00162 | -118.15296 | 2582 ft | 182 kts | 184° |
| 2026-05-04 02:21 | 33.99056 | -118.15791 | 2601 ft | 176 kts | 219° |
| 2026-05-04 02:22 | 33.98220 | -118.16855 | 2585 ft | 175 kts | 231° |
| 2026-05-04 02:22 | 33.97619 | -118.18076 | 2587 ft | 175 kts | 251° |
| 2026-05-04 02:22 | 33.97368 | -118.19532 | 2592 ft | 177 kts | 262° |
| 2026-05-04 02:22 | 33.97214 | -118.20966 | 2577 ft | 176 kts | 260° |
| 2026-05-04 02:23 | 33.97096 | -118.21913 | 2594 ft | 175 kts | 261° |
| 2026-05-04 02:23 | 33.96890 | -118.23852 | 2591 ft | 176 kts | 263° |
| 2026-05-04 02:23 | 33.96741 | -118.25336 | 2526 ft | 179 kts | 262° |
| 2026-05-04 02:23 | 33.96589 | -118.26799 | 2307 ft | 178 kts | 262° |
| 2026-05-04 02:24 | 33.96437 | -118.28262 | 2075 ft | 176 kts | 262° |
| 2026-05-04 02:24 | 33.96290 | -118.29689 | 1832 ft | 166 kts | 262° |
| 2026-05-04 02:24 | 33.96202 | -118.30561 | 1704 ft | 155 kts | 261° |
| 2026-05-04 02:24 | 33.96075 | -118.31790 | 1502 ft | 142 kts | 263° |
| 2026-05-04 02:25 | 33.95961 | -118.32907 | 1311 ft | 133 kts | 262° |
| 2026-05-04 02:25 | 33.95852 | -118.33982 | 1153 ft | 128 kts | 259° |
| 2026-05-04 02:25 | 33.95749 | -118.35037 | 968 ft | 126 kts | 262° |
| 2026-05-04 02:25 | 33.95645 | -118.36066 | 785 ft | 125 kts | 263° |
| 2026-05-04 02:26 | 33.95533 | -118.37111 | 649 ft | 124 kts | 262° |
| 2026-05-04 02:26 | 33.95428 | -118.38134 | 479 ft | 124 kts | 262° |
| 2026-05-04 02:26 | 33.95322 | -118.39150 | 290 ft | 121 kts | 261° |
| 2026-05-04 02:26 | 33.95222 | -118.40118 | 134 ft | 119 kts | 261° |
| 2026-05-04 02:27 | 33.95124 | -118.41041 | 100 ft | 103 kts | 263° |
| 2026-05-04 02:27 | 33.95057 | -118.41716 | 101 ft | 60 kts | 263° |
| 2026-05-04 02:27 | 33.95020 | -118.42082 | 103 ft | 37 kts | 263° |
| 2026-05-04 02:27 | 33.94976 | -118.42306 | 102 ft | 22 kts | 243° |
| 2026-05-04 02:28 | 33.94903 | -118.42423 | 104 ft | 10 kts | 224° |
| 2026-05-04 02:28 | 33.94859 | -118.42468 | 102 ft | 7 kts | 214° |
| 2026-05-04 02:28 | 33.94821 | -118.42486 | 104 ft | 5 kts | 193° |
| 2026-05-04 02:28 | 33.94786 | -118.42490 | 105 ft | 6 kts | 181° |
| 2026-05-04 02:29 | 33.94741 | -118.42486 | 106 ft | 8 kts | 173° |
| 2026-05-04 02:29 | 33.94685 | -118.42475 | 104 ft | 7 kts | 164° |
| 2026-05-04 02:29 | 33.94665 | -118.42442 | 104 ft | 6 kts | 98° |
| 2026-05-04 02:29 | 33.94668 | -118.42373 | 102 ft | 11 kts | 85° |
| 2026-05-04 02:30 | 33.94679 | -118.42263 | 101 ft | 16 kts | 83° |
| 2026-05-04 02:30 | 33.94691 | -118.42141 | 101 ft | 13 kts | 83° |
| 2026-05-04 02:30 | 33.94702 | -118.42028 | 103 ft | 16 kts | 83° |
| 2026-05-04 02:30 | 33.94715 | -118.41901 | 100 ft | 14 kts | 83° |
| 2026-05-04 02:31 | 33.94729 | -118.41769 | 103 ft | 18 kts | 83° |
| 2026-05-04 02:31 | 33.94743 | -118.41632 | 100 ft | 14 kts | 83° |
| 2026-05-04 02:31 | 33.94755 | -118.41525 | 100 ft | 10 kts | 83° |
| 2026-05-04 02:31 | 33.94766 | -118.41441 | 101 ft | 10 kts | 76° |
| 2026-05-04 02:32 | 33.94781 | -118.41374 | 101 ft | 8 kts | 75° |
| 2026-05-04 02:32 | 33.94781 | -118.41316 | 101 ft | 6 kts | 115° |
| 2026-05-04 02:32 | 33.94740 | -118.41293 | 102 ft | 8 kts | 168° |
| 2026-05-04 02:32 | 33.94672 | -118.41282 | 102 ft | 10 kts | 173° |
| 2026-05-04 02:33 | 33.94622 | -118.41274 | 100 ft | 5 kts | 173° |
| 2026-05-04 02:33 | 33.94576 | -118.41267 | 100 ft | 6 kts | 173° |
| 2026-05-04 02:33 | 33.94542 | -118.41254 | 101 ft | 3 kts | 145° |
| 2026-05-04 02:33 | 33.94531 | -118.41228 | 102 ft | 4 kts | 107° |
| 2026-05-04 02:34 | 33.94525 | -118.41188 | 100 ft | 4 kts | 97° |
| 2026-05-04 02:34 | 33.94522 | -118.41158 | 99 ft | 2 kts | 97° |
| 2026-05-04 02:34 | 33.94521 | -118.41145 | 101 ft | 0 kts | 97° |
| 2026-05-04 02:35 | 33.94521 | -118.41144 | 102 ft | 0 kts | 97° |